sensor_id;sensor_type;location;lat;lon;timestamp;P1;durP1;ratioP1;P2;durP2;ratioP2
25191;SDS011;13143;50.924;5.320;2023-01-08T00:02:17;7.55;;;3.63;;
25191;SDS011;13143;50.924;5.320;2023-01-08T00:04:43;7.20;;;3.35;;
25191;SDS011;13143;50.924;5.320;2023-01-08T00:07:09;7.45;;;3.20;;
25191;SDS011;13143;50.924;5.320;2023-01-08T00:09:34;6.93;;;3.42;;
25191;SDS011;13143;50.924;5.320;2023-01-08T00:12:00;9.73;;;3.70;;
25191;SDS011;13143;50.924;5.320;2023-01-08T00:14:26;7.22;;;3.78;;
25191;SDS011;13143;50.924;5.320;2023-01-08T00:16:51;6.43;;;3.42;;
25191;SDS011;13143;50.924;5.320;2023-01-08T00:19:17;8.35;;;3.33;;
25191;SDS011;13143;50.924;5.320;2023-01-08T00:21:43;7.90;;;3.63;;
25191;SDS011;13143;50.924;5.320;2023-01-08T00:24:08;6.82;;;3.80;;
25191;SDS011;13143;50.924;5.320;2023-01-08T00:26:34;7.40;;;3.95;;
25191;SDS011;13143;50.924;5.320;2023-01-08T00:29:00;8.95;;;3.67;;
25191;SDS011;13143;50.924;5.320;2023-01-08T00:31:25;9.25;;;3.50;;
25191;SDS011;13143;50.924;5.320;2023-01-08T00:33:51;5.55;;;3.58;;
25191;SDS011;13143;50.924;5.320;2023-01-08T00:36:17;9.00;;;3.40;;
25191;SDS011;13143;50.924;5.320;2023-01-08T00:38:44;8.80;;;3.85;;
25191;SDS011;13143;50.924;5.320;2023-01-08T00:41:11;5.35;;;3.50;;
25191;SDS011;13143;50.924;5.320;2023-01-08T00:43:38;7.10;;;3.10;;
25191;SDS011;13143;50.924;5.320;2023-01-08T00:46:04;6.00;;;3.10;;
25191;SDS011;13143;50.924;5.320;2023-01-08T00:48:30;5.55;;;3.35;;
25191;SDS011;13143;50.924;5.320;2023-01-08T00:51:00;6.32;;;3.17;;
25191;SDS011;13143;50.924;5.320;2023-01-08T00:53:26;8.98;;;3.88;;
25191;SDS011;13143;50.924;5.320;2023-01-08T00:55:58;7.05;;;3.38;;
25191;SDS011;13143;50.924;5.320;2023-01-08T00:58:28;6.43;;;3.60;;
25191;SDS011;13143;50.924;5.320;2023-01-08T01:00:54;10.05;;;3.55;;
25191;SDS011;13143;50.924;5.320;2023-01-08T01:03:20;7.50;;;3.30;;
25191;SDS011;13143;50.924;5.320;2023-01-08T01:05:45;8.18;;;3.83;;
25191;SDS011;13143;50.924;5.320;2023-01-08T01:08:11;6.43;;;3.60;;
25191;SDS011;13143;50.924;5.320;2023-01-08T01:10:37;8.43;;;3.30;;
25191;SDS011;13143;50.924;5.320;2023-01-08T01:13:03;6.63;;;3.28;;
25191;SDS011;13143;50.924;5.320;2023-01-08T01:15:29;10.23;;;3.90;;
25191;SDS011;13143;50.924;5.320;2023-01-08T01:17:55;5.28;;;3.40;;
25191;SDS011;13143;50.924;5.320;2023-01-08T01:20:20;8.02;;;3.47;;
25191;SDS011;13143;50.924;5.320;2023-01-08T01:22:47;7.30;;;3.55;;
25191;SDS011;13143;50.924;5.320;2023-01-08T01:25:13;8.65;;;3.13;;
25191;SDS011;13143;50.924;5.320;2023-01-08T01:27:39;5.50;;;3.60;;
25191;SDS011;13143;50.924;5.320;2023-01-08T01:30:05;5.25;;;3.17;;
25191;SDS011;13143;50.924;5.320;2023-01-08T01:32:31;6.30;;;3.15;;
25191;SDS011;13143;50.924;5.320;2023-01-08T01:34:57;6.05;;;3.42;;
25191;SDS011;13143;50.924;5.320;2023-01-08T01:37:23;5.65;;;3.30;;
25191;SDS011;13143;50.924;5.320;2023-01-08T01:39:48;4.93;;;3.00;;
25191;SDS011;13143;50.924;5.320;2023-01-08T01:42:15;9.10;;;3.30;;
25191;SDS011;13143;50.924;5.320;2023-01-08T01:45:22;6.47;;;3.30;;
25191;SDS011;13143;50.924;5.320;2023-01-08T01:47:51;5.63;;;2.80;;
25191;SDS011;13143;50.924;5.320;2023-01-08T01:50:39;4.85;;;3.40;;
25191;SDS011;13143;50.924;5.320;2023-01-08T01:53:14;5.15;;;3.10;;
25191;SDS011;13143;50.924;5.320;2023-01-08T01:55:45;6.93;;;3.33;;
25191;SDS011;13143;50.924;5.320;2023-01-08T01:58:13;7.00;;;2.70;;
25191;SDS011;13143;50.924;5.320;2023-01-08T02:00:40;5.75;;;3.10;;
25191;SDS011;13143;50.924;5.320;2023-01-08T02:03:06;10.43;;;3.20;;
25191;SDS011;13143;50.924;5.320;2023-01-08T02:05:57;8.90;;;3.25;;
25191;SDS011;13143;50.924;5.320;2023-01-08T02:13:38;7.03;;;3.10;;
25191;SDS011;13143;50.924;5.320;2023-01-08T02:18:46;7.57;;;3.28;;
25191;SDS011;13143;50.924;5.320;2023-01-08T02:21:30;4.82;;;2.60;;
25191;SDS011;13143;50.924;5.320;2023-01-08T02:24:16;6.10;;;3.13;;
25191;SDS011;13143;50.924;5.320;2023-01-08T02:26:51;6.38;;;2.97;;
25191;SDS011;13143;50.924;5.320;2023-01-08T02:29:19;6.63;;;3.00;;
25191;SDS011;13143;50.924;5.320;2023-01-08T02:31:47;5.95;;;2.60;;
25191;SDS011;13143;50.924;5.320;2023-01-08T02:34:13;7.28;;;3.03;;
25191;SDS011;13143;50.924;5.320;2023-01-08T02:42:16;7.88;;;3.28;;
25191;SDS011;13143;50.924;5.320;2023-01-08T02:47:50;5.63;;;2.50;;
25191;SDS011;13143;50.924;5.320;2023-01-08T02:50:24;4.70;;;2.60;;
25191;SDS011;13143;50.924;5.320;2023-01-08T02:53:25;3.67;;;2.50;;
25191;SDS011;13143;50.924;5.320;2023-01-08T02:55:52;4.72;;;2.38;;
25191;SDS011;13143;50.924;5.320;2023-01-08T02:58:22;5.25;;;2.95;;
25191;SDS011;13143;50.924;5.320;2023-01-08T03:00:50;5.63;;;2.53;;
25191;SDS011;13143;50.924;5.320;2023-01-08T03:03:18;3.97;;;2.60;;
25191;SDS011;13143;50.924;5.320;2023-01-08T03:05:52;4.88;;;2.20;;
25191;SDS011;13143;50.924;5.320;2023-01-08T03:08:20;3.63;;;2.45;;
25191;SDS011;13143;50.924;5.320;2023-01-08T03:10:48;4.30;;;2.55;;
25191;SDS011;13143;50.924;5.320;2023-01-08T03:13:31;6.32;;;2.17;;
25191;SDS011;13143;50.924;5.320;2023-01-08T03:16:05;3.50;;;2.08;;
25191;SDS011;13143;50.924;5.320;2023-01-08T03:18:37;4.82;;;2.33;;
25191;SDS011;13143;50.924;5.320;2023-01-08T03:21:11;4.63;;;2.25;;
25191;SDS011;13143;50.924;5.320;2023-01-08T03:23:38;4.88;;;2.42;;
25191;SDS011;13143;50.924;5.320;2023-01-08T03:26:06;5.30;;;1.75;;
25191;SDS011;13143;50.924;5.320;2023-01-08T03:28:35;8.13;;;2.67;;
25191;SDS011;13143;50.924;5.320;2023-01-08T03:31:06;5.25;;;2.25;;
25191;SDS011;13143;50.924;5.320;2023-01-08T03:33:33;5.10;;;2.20;;
25191;SDS011;13143;50.924;5.320;2023-01-08T03:36:00;4.78;;;2.03;;
25191;SDS011;13143;50.924;5.320;2023-01-08T03:38:32;4.40;;;2.05;;
25191;SDS011;13143;50.924;5.320;2023-01-08T03:41:06;4.43;;;1.75;;
25191;SDS011;13143;50.924;5.320;2023-01-08T03:43:35;2.97;;;1.85;;
25191;SDS011;13143;50.924;5.320;2023-01-08T03:46:01;3.75;;;1.92;;
25191;SDS011;13143;50.924;5.320;2023-01-08T03:48:31;3.97;;;2.00;;
25191;SDS011;13143;50.924;5.320;2023-01-08T03:50:59;4.47;;;2.08;;
25191;SDS011;13143;50.924;5.320;2023-01-08T03:53:26;3.05;;;1.92;;
25191;SDS011;13143;50.924;5.320;2023-01-08T03:55:52;5.47;;;1.83;;
25191;SDS011;13143;50.924;5.320;2023-01-08T03:58:18;4.07;;;1.80;;
25191;SDS011;13143;50.924;5.320;2023-01-08T04:00:43;8.10;;;2.20;;
25191;SDS011;13143;50.924;5.320;2023-01-08T04:03:09;5.32;;;1.75;;
25191;SDS011;13143;50.924;5.320;2023-01-08T04:05:34;5.78;;;1.80;;
25191;SDS011;13143;50.924;5.320;2023-01-08T04:08:00;4.97;;;1.52;;
25191;SDS011;13143;50.924;5.320;2023-01-08T04:10:26;5.28;;;1.45;;
25191;SDS011;13143;50.924;5.320;2023-01-08T04:12:52;6.40;;;1.50;;
25191;SDS011;13143;50.924;5.320;2023-01-08T04:15:17;8.95;;;1.50;;
25191;SDS011;13143;50.924;5.320;2023-01-08T04:17:43;5.30;;;1.38;;
25191;SDS011;13143;50.924;5.320;2023-01-08T04:20:09;4.88;;;1.33;;
25191;SDS011;13143;50.924;5.320;2023-01-08T04:22:35;4.75;;;1.30;;
25191;SDS011;13143;50.924;5.320;2023-01-08T04:25:00;9.48;;;1.45;;
25191;SDS011;13143;50.924;5.320;2023-01-08T04:27:26;3.72;;;1.35;;
25191;SDS011;13143;50.924;5.320;2023-01-08T04:29:52;7.07;;;1.20;;
25191;SDS011;13143;50.924;5.320;2023-01-08T04:32:18;8.20;;;1.50;;
25191;SDS011;13143;50.924;5.320;2023-01-08T04:34:44;5.03;;;1.40;;
25191;SDS011;13143;50.924;5.320;2023-01-08T04:37:09;5.93;;;1.33;;
25191;SDS011;13143;50.924;5.320;2023-01-08T04:39:35;4.35;;;1.42;;
25191;SDS011;13143;50.924;5.320;2023-01-08T04:42:01;4.05;;;0.98;;
25191;SDS011;13143;50.924;5.320;2023-01-08T04:44:26;5.93;;;1.05;;
25191;SDS011;13143;50.924;5.320;2023-01-08T04:46:52;2.55;;;1.00;;
25191;SDS011;13143;50.924;5.320;2023-01-08T04:49:18;10.02;;;1.38;;
25191;SDS011;13143;50.924;5.320;2023-01-08T04:51:43;7.65;;;1.35;;
25191;SDS011;13143;50.924;5.320;2023-01-08T04:54:09;4.05;;;0.93;;
25191;SDS011;13143;50.924;5.320;2023-01-08T04:56:35;7.43;;;1.00;;
25191;SDS011;13143;50.924;5.320;2023-01-08T04:59:00;3.88;;;0.95;;
25191;SDS011;13143;50.924;5.320;2023-01-08T05:01:26;7.45;;;1.00;;
25191;SDS011;13143;50.924;5.320;2023-01-08T05:03:59;9.07;;;1.55;;
25191;SDS011;13143;50.924;5.320;2023-01-08T05:06:27;6.68;;;1.10;;
25191;SDS011;13143;50.924;5.320;2023-01-08T05:08:53;7.05;;;1.20;;
25191;SDS011;13143;50.924;5.320;2023-01-08T05:11:19;5.00;;;1.00;;
25191;SDS011;13143;50.924;5.320;2023-01-08T05:13:49;11.10;;;1.20;;
25191;SDS011;13143;50.924;5.320;2023-01-08T05:16:15;8.95;;;1.10;;
25191;SDS011;13143;50.924;5.320;2023-01-08T05:18:41;7.85;;;1.10;;
25191;SDS011;13143;50.924;5.320;2023-01-08T05:21:08;4.75;;;0.93;;
25191;SDS011;13143;50.924;5.320;2023-01-08T05:23:34;7.00;;;1.10;;
25191;SDS011;13143;50.924;5.320;2023-01-08T05:26:00;5.20;;;0.93;;
25191;SDS011;13143;50.924;5.320;2023-01-08T05:28:28;5.25;;;1.13;;
25191;SDS011;13143;50.924;5.320;2023-01-08T05:30:54;9.80;;;1.10;;
25191;SDS011;13143;50.924;5.320;2023-01-08T05:33:21;4.68;;;0.80;;
25191;SDS011;13143;50.924;5.320;2023-01-08T05:35:47;6.28;;;1.33;;
25191;SDS011;13143;50.924;5.320;2023-01-08T05:38:13;9.63;;;1.88;;
25191;SDS011;13143;50.924;5.320;2023-01-08T05:40:39;5.75;;;0.93;;
25191;SDS011;13143;50.924;5.320;2023-01-08T05:43:04;7.95;;;1.15;;
25191;SDS011;13143;50.924;5.320;2023-01-08T05:45:31;7.95;;;1.80;;
25191;SDS011;13143;50.924;5.320;2023-01-08T05:47:56;5.95;;;1.02;;
25191;SDS011;13143;50.924;5.320;2023-01-08T05:50:22;6.13;;;1.08;;
25191;SDS011;13143;50.924;5.320;2023-01-08T05:52:48;5.97;;;1.20;;
25191;SDS011;13143;50.924;5.320;2023-01-08T05:55:14;6.25;;;1.50;;
25191;SDS011;13143;50.924;5.320;2023-01-08T05:57:39;8.43;;;1.42;;
25191;SDS011;13143;50.924;5.320;2023-01-08T06:00:05;7.88;;;1.10;;
25191;SDS011;13143;50.924;5.320;2023-01-08T06:02:33;7.10;;;1.35;;
25191;SDS011;13143;50.924;5.320;2023-01-08T06:04:58;8.32;;;1.52;;
25191;SDS011;13143;50.924;5.320;2023-01-08T06:07:24;3.30;;;0.98;;
25191;SDS011;13143;50.924;5.320;2023-01-08T06:09:50;5.45;;;1.20;;
25191;SDS011;13143;50.924;5.320;2023-01-08T06:12:15;8.70;;;1.45;;
25191;SDS011;13143;50.924;5.320;2023-01-08T06:14:41;7.40;;;1.40;;
25191;SDS011;13143;50.924;5.320;2023-01-08T06:17:06;9.88;;;1.30;;
25191;SDS011;13143;50.924;5.320;2023-01-08T06:19:32;9.95;;;1.48;;
25191;SDS011;13143;50.924;5.320;2023-01-08T06:21:58;8.15;;;1.30;;
25191;SDS011;13143;50.924;5.320;2023-01-08T06:24:23;11.68;;;1.58;;
25191;SDS011;13143;50.924;5.320;2023-01-08T06:26:49;6.95;;;1.23;;
25191;SDS011;13143;50.924;5.320;2023-01-08T06:29:14;6.97;;;1.40;;
25191;SDS011;13143;50.924;5.320;2023-01-08T06:31:40;6.60;;;1.38;;
25191;SDS011;13143;50.924;5.320;2023-01-08T06:34:06;7.40;;;1.95;;
25191;SDS011;13143;50.924;5.320;2023-01-08T06:36:31;5.55;;;1.10;;
25191;SDS011;13143;50.924;5.320;2023-01-08T06:38:57;7.28;;;0.90;;
25191;SDS011;13143;50.924;5.320;2023-01-08T06:41:23;4.40;;;1.00;;
25191;SDS011;13143;50.924;5.320;2023-01-08T06:43:48;8.95;;;1.88;;
25191;SDS011;13143;50.924;5.320;2023-01-08T06:46:14;8.45;;;1.50;;
25191;SDS011;13143;50.924;5.320;2023-01-08T06:48:39;5.43;;;1.10;;
25191;SDS011;13143;50.924;5.320;2023-01-08T06:51:05;11.55;;;1.73;;
25191;SDS011;13143;50.924;5.320;2023-01-08T06:53:31;8.75;;;1.30;;
25191;SDS011;13143;50.924;5.320;2023-01-08T06:55:57;8.95;;;1.40;;
25191;SDS011;13143;50.924;5.320;2023-01-08T06:58:23;4.68;;;1.10;;
25191;SDS011;13143;50.924;5.320;2023-01-08T07:00:50;12.40;;;1.50;;
25191;SDS011;13143;50.924;5.320;2023-01-08T07:03:15;12.82;;;1.77;;
25191;SDS011;13143;50.924;5.320;2023-01-08T07:05:41;10.00;;;1.48;;
25191;SDS011;13143;50.924;5.320;2023-01-08T07:08:10;13.02;;;1.75;;
25191;SDS011;13143;50.924;5.320;2023-01-08T07:10:40;7.80;;;1.60;;
25191;SDS011;13143;50.924;5.320;2023-01-08T07:13:08;8.25;;;1.63;;
25191;SDS011;13143;50.924;5.320;2023-01-08T07:15:35;11.18;;;2.08;;
25191;SDS011;13143;50.924;5.320;2023-01-08T07:18:03;8.57;;;1.45;;
25191;SDS011;13143;50.924;5.320;2023-01-08T07:20:30;12.27;;;1.50;;
25191;SDS011;13143;50.924;5.320;2023-01-08T07:22:59;13.88;;;1.63;;
25191;SDS011;13143;50.924;5.320;2023-01-08T07:25:26;10.95;;;2.10;;
25191;SDS011;13143;50.924;5.320;2023-01-08T07:27:51;11.75;;;1.83;;
25191;SDS011;13143;50.924;5.320;2023-01-08T07:30:17;16.85;;;1.95;;
25191;SDS011;13143;50.924;5.320;2023-01-08T07:32:42;7.38;;;1.85;;
25191;SDS011;13143;50.924;5.320;2023-01-08T07:35:08;8.55;;;1.45;;
25191;SDS011;13143;50.924;5.320;2023-01-08T07:37:37;13.10;;;3.30;;
25191;SDS011;13143;50.924;5.320;2023-01-08T07:40:08;10.73;;;2.20;;
25191;SDS011;13143;50.924;5.320;2023-01-08T07:42:34;9.52;;;1.45;;
25191;SDS011;13143;50.924;5.320;2023-01-08T07:45:00;13.65;;;1.67;;
25191;SDS011;13143;50.924;5.320;2023-01-08T07:47:26;16.80;;;2.92;;
25191;SDS011;13143;50.924;5.320;2023-01-08T07:49:52;14.70;;;1.65;;
25191;SDS011;13143;50.924;5.320;2023-01-08T07:52:17;13.60;;;2.28;;
25191;SDS011;13143;50.924;5.320;2023-01-08T07:54:43;6.47;;;1.63;;
25191;SDS011;13143;50.924;5.320;2023-01-08T07:57:09;22.13;;;2.97;;
25191;SDS011;13143;50.924;5.320;2023-01-08T07:59:34;12.25;;;1.83;;
25191;SDS011;13143;50.924;5.320;2023-01-08T08:02:00;17.40;;;2.00;;
25191;SDS011;13143;50.924;5.320;2023-01-08T08:04:26;7.55;;;1.63;;
25191;SDS011;13143;50.924;5.320;2023-01-08T08:06:52;12.48;;;1.92;;
25191;SDS011;13143;50.924;5.320;2023-01-08T08:09:18;10.20;;;2.55;;
25191;SDS011;13143;50.924;5.320;2023-01-08T08:11:44;12.25;;;2.63;;
25191;SDS011;13143;50.924;5.320;2023-01-08T08:14:09;15.80;;;2.75;;
25191;SDS011;13143;50.924;5.320;2023-01-08T08:16:35;18.25;;;2.22;;
25191;SDS011;13143;50.924;5.320;2023-01-08T08:19:00;10.93;;;2.13;;
25191;SDS011;13143;50.924;5.320;2023-01-08T08:21:26;11.65;;;1.83;;
25191;SDS011;13143;50.924;5.320;2023-01-08T08:23:53;16.27;;;2.58;;
25191;SDS011;13143;50.924;5.320;2023-01-08T08:26:19;15.68;;;2.00;;
25191;SDS011;13143;50.924;5.320;2023-01-08T08:28:45;11.98;;;2.10;;
25191;SDS011;13143;50.924;5.320;2023-01-08T08:31:10;12.13;;;2.22;;
25191;SDS011;13143;50.924;5.320;2023-01-08T08:33:36;13.43;;;2.40;;
25191;SDS011;13143;50.924;5.320;2023-01-08T08:36:02;14.20;;;2.40;;
25191;SDS011;13143;50.924;5.320;2023-01-08T08:38:28;9.60;;;2.00;;
25191;SDS011;13143;50.924;5.320;2023-01-08T08:40:53;9.65;;;2.15;;
25191;SDS011;13143;50.924;5.320;2023-01-08T08:43:19;16.33;;;2.67;;
25191;SDS011;13143;50.924;5.320;2023-01-08T08:45:45;5.13;;;2.25;;
25191;SDS011;13143;50.924;5.320;2023-01-08T08:48:10;8.68;;;2.03;;
25191;SDS011;13143;50.924;5.320;2023-01-08T08:50:36;14.93;;;2.10;;
25191;SDS011;13143;50.924;5.320;2023-01-08T08:53:02;11.82;;;2.30;;
25191;SDS011;13143;50.924;5.320;2023-01-08T08:55:29;11.18;;;2.20;;
25191;SDS011;13143;50.924;5.320;2023-01-08T08:58:09;8.00;;;1.63;;
25191;SDS011;13143;50.924;5.320;2023-01-08T09:00:36;18.90;;;2.00;;
25191;SDS011;13143;50.924;5.320;2023-01-08T09:03:03;12.48;;;2.05;;
25191;SDS011;13143;50.924;5.320;2023-01-08T09:05:28;10.68;;;1.90;;
25191;SDS011;13143;50.924;5.320;2023-01-08T09:07:54;11.57;;;1.65;;
25191;SDS011;13143;50.924;5.320;2023-01-08T09:10:21;8.18;;;1.88;;
25191;SDS011;13143;50.924;5.320;2023-01-08T09:12:47;6.97;;;1.70;;
25191;SDS011;13143;50.924;5.320;2023-01-08T09:15:13;11.88;;;1.80;;
25191;SDS011;13143;50.924;5.320;2023-01-08T09:17:38;11.35;;;2.25;;
25191;SDS011;13143;50.924;5.320;2023-01-08T09:20:04;10.95;;;2.17;;
25191;SDS011;13143;50.924;5.320;2023-01-08T09:22:30;8.80;;;2.50;;
25191;SDS011;13143;50.924;5.320;2023-01-08T09:24:56;10.38;;;2.05;;
25191;SDS011;13143;50.924;5.320;2023-01-08T09:27:21;13.70;;;2.40;;
25191;SDS011;13143;50.924;5.320;2023-01-08T09:29:47;8.98;;;2.25;;
25191;SDS011;13143;50.924;5.320;2023-01-08T09:32:13;14.98;;;2.60;;
25191;SDS011;13143;50.924;5.320;2023-01-08T09:34:38;11.30;;;2.25;;
25191;SDS011;13143;50.924;5.320;2023-01-08T09:37:04;10.55;;;2.17;;
25191;SDS011;13143;50.924;5.320;2023-01-08T09:39:30;12.00;;;2.17;;
25191;SDS011;13143;50.924;5.320;2023-01-08T09:41:57;15.77;;;3.03;;
25191;SDS011;13143;50.924;5.320;2023-01-08T09:44:27;12.10;;;2.40;;
25191;SDS011;13143;50.924;5.320;2023-01-08T09:46:57;11.85;;;2.67;;
25191;SDS011;13143;50.924;5.320;2023-01-08T09:49:25;8.63;;;2.15;;
25191;SDS011;13143;50.924;5.320;2023-01-08T09:52:04;12.10;;;3.38;;
25191;SDS011;13143;50.924;5.320;2023-01-08T09:54:30;9.27;;;2.03;;
25191;SDS011;13143;50.924;5.320;2023-01-08T09:56:57;10.38;;;2.20;;
25191;SDS011;13143;50.924;5.320;2023-01-08T09:59:23;10.68;;;2.10;;
25191;SDS011;13143;50.924;5.320;2023-01-08T10:01:50;8.38;;;1.20;;
25191;SDS011;13143;50.924;5.320;2023-01-08T10:06:53;7.25;;;1.90;;
25191;SDS011;13143;50.924;5.320;2023-01-08T10:09:42;6.75;;;1.60;;
25191;SDS011;13143;50.924;5.320;2023-01-08T10:12:08;9.38;;;1.55;;
25191;SDS011;13143;50.924;5.320;2023-01-08T10:14:37;4.70;;;1.33;;
25191;SDS011;13143;50.924;5.320;2023-01-08T10:17:16;9.35;;;1.67;;
25191;SDS011;13143;50.924;5.320;2023-01-08T10:20:12;8.38;;;1.63;;
25191;SDS011;13143;50.924;5.320;2023-01-08T10:22:38;3.90;;;1.50;;
25191;SDS011;13143;50.924;5.320;2023-01-08T10:25:05;8.23;;;1.80;;
25191;SDS011;13143;50.924;5.320;2023-01-08T10:33:11;6.90;;;1.90;;
25191;SDS011;13143;50.924;5.320;2023-01-08T10:36:03;8.70;;;1.83;;
25191;SDS011;13143;50.924;5.320;2023-01-08T10:38:32;9.65;;;2.30;;
25191;SDS011;13143;50.924;5.320;2023-01-08T10:41:17;9.73;;;2.05;;
25191;SDS011;13143;50.924;5.320;2023-01-08T10:46:17;9.18;;;1.77;;
25191;SDS011;13143;50.924;5.320;2023-01-08T10:48:52;7.72;;;1.45;;
25191;SDS011;13143;50.924;5.320;2023-01-08T10:51:22;3.90;;;1.58;;
25191;SDS011;13143;50.924;5.320;2023-01-08T10:53:53;6.00;;;1.35;;
25191;SDS011;13143;50.924;5.320;2023-01-08T10:56:21;4.15;;;1.30;;
25191;SDS011;13143;50.924;5.320;2023-01-08T10:58:48;4.70;;;1.10;;
25191;SDS011;13143;50.924;5.320;2023-01-08T11:01:17;3.90;;;0.90;;
25191;SDS011;13143;50.924;5.320;2023-01-08T11:03:48;4.72;;;1.20;;
25191;SDS011;13143;50.924;5.320;2023-01-08T11:06:20;4.90;;;0.88;;
25191;SDS011;13143;50.924;5.320;2023-01-08T11:08:51;3.28;;;1.13;;
25191;SDS011;13143;50.924;5.320;2023-01-08T11:11:39;3.33;;;1.05;;
25191;SDS011;13143;50.924;5.320;2023-01-08T11:14:13;5.57;;;0.93;;
25191;SDS011;13143;50.924;5.320;2023-01-08T11:16:44;4.70;;;0.80;;
25191;SDS011;13143;50.924;5.320;2023-01-08T11:19:15;3.88;;;1.02;;
25191;SDS011;13143;50.924;5.320;2023-01-08T11:21:53;4.60;;;1.25;;
25191;SDS011;13143;50.924;5.320;2023-01-08T11:24:28;3.53;;;0.80;;
25191;SDS011;13143;50.924;5.320;2023-01-08T11:27:02;2.95;;;1.10;;
25191;SDS011;13143;50.924;5.320;2023-01-08T11:32:08;6.80;;;1.08;;
25191;SDS011;13143;50.924;5.320;2023-01-08T11:35:16;5.38;;;1.10;;
25191;SDS011;13143;50.924;5.320;2023-01-08T11:37:49;8.00;;;0.90;;
25191;SDS011;13143;50.924;5.320;2023-01-08T11:40:40;5.18;;;0.82;;
25191;SDS011;13143;50.924;5.320;2023-01-08T11:49:19;5.97;;;1.08;;
25191;SDS011;13143;50.924;5.320;2023-01-08T11:52:13;8.43;;;1.10;;
25191;SDS011;13143;50.924;5.320;2023-01-08T11:55:00;4.60;;;1.08;;
25191;SDS011;13143;50.924;5.320;2023-01-08T12:00:19;3.33;;;1.40;;
25191;SDS011;13143;50.924;5.320;2023-01-08T12:08:06;6.03;;;1.10;;
25191;SDS011;13143;50.924;5.320;2023-01-08T12:13:38;6.43;;;1.10;;
25191;SDS011;13143;50.924;5.320;2023-01-08T12:16:18;12.60;;;1.40;;
25191;SDS011;13143;50.924;5.320;2023-01-08T12:21:59;6.95;;;1.52;;
25191;SDS011;13143;50.924;5.320;2023-01-08T12:30:12;8.30;;;1.35;;
25191;SDS011;13143;50.924;5.320;2023-01-08T12:32:42;6.40;;;1.33;;
25191;SDS011;13143;50.924;5.320;2023-01-08T12:40:42;5.85;;;1.20;;
25191;SDS011;13143;50.924;5.320;2023-01-08T12:43:17;2.03;;;1.08;;
25191;SDS011;13143;50.924;5.320;2023-01-08T12:45:50;8.85;;;1.20;;
25191;SDS011;13143;50.924;5.320;2023-01-08T12:48:20;9.40;;;1.63;;
25191;SDS011;13143;50.924;5.320;2023-01-08T12:53:52;13.27;;;1.40;;
25191;SDS011;13143;50.924;5.320;2023-01-08T13:04:22;10.18;;;1.50;;
25191;SDS011;13143;50.924;5.320;2023-01-08T13:06:52;3.00;;;1.10;;
25191;SDS011;13143;50.924;5.320;2023-01-08T13:09:26;5.95;;;1.08;;
25191;SDS011;13143;50.924;5.320;2023-01-08T13:11:53;7.60;;;1.30;;
25191;SDS011;13143;50.924;5.320;2023-01-08T13:14:20;6.30;;;1.50;;
25191;SDS011;13143;50.924;5.320;2023-01-08T13:16:46;7.25;;;1.63;;
25191;SDS011;13143;50.924;5.320;2023-01-08T13:19:27;5.95;;;1.10;;
25191;SDS011;13143;50.924;5.320;2023-01-08T13:22:04;4.65;;;0.90;;
25191;SDS011;13143;50.924;5.320;2023-01-08T13:24:47;7.63;;;1.08;;
25191;SDS011;13143;50.924;5.320;2023-01-08T13:29:42;7.65;;;1.00;;
25191;SDS011;13143;50.924;5.320;2023-01-08T13:32:26;9.80;;;1.90;;
25191;SDS011;13143;50.924;5.320;2023-01-08T13:35:13;4.95;;;1.10;;
25191;SDS011;13143;50.924;5.320;2023-01-08T13:37:46;3.53;;;1.13;;
25191;SDS011;13143;50.924;5.320;2023-01-08T13:40:56;7.50;;;1.33;;
25191;SDS011;13143;50.924;5.320;2023-01-08T13:43:12;6.65;;;1.23;;
25191;SDS011;13143;50.924;5.320;2023-01-08T13:45:46;8.05;;;1.33;;
25191;SDS011;13143;50.924;5.320;2023-01-08T13:48:29;8.10;;;1.20;;
25191;SDS011;13143;50.924;5.320;2023-01-08T13:50:59;7.75;;;1.20;;
25191;SDS011;13143;50.924;5.320;2023-01-08T13:53:25;4.85;;;1.17;;
25191;SDS011;13143;50.924;5.320;2023-01-08T13:56:01;5.03;;;1.23;;
25191;SDS011;13143;50.924;5.320;2023-01-08T13:58:34;4.43;;;1.17;;
25191;SDS011;13143;50.924;5.320;2023-01-08T14:01:04;3.67;;;1.08;;
25191;SDS011;13143;50.924;5.320;2023-01-08T14:03:35;7.05;;;1.38;;
25191;SDS011;13143;50.924;5.320;2023-01-08T14:06:18;4.97;;;1.38;;
25191;SDS011;13143;50.924;5.320;2023-01-08T14:08:56;3.53;;;1.42;;
25191;SDS011;13143;50.924;5.320;2023-01-08T14:11:29;6.35;;;1.17;;
25191;SDS011;13143;50.924;5.320;2023-01-08T14:14:19;4.85;;;1.13;;
25191;SDS011;13143;50.924;5.320;2023-01-08T14:16:47;4.20;;;0.90;;
25191;SDS011;13143;50.924;5.320;2023-01-08T14:19:16;9.45;;;1.38;;
25191;SDS011;13143;50.924;5.320;2023-01-08T14:21:49;10.60;;;1.38;;
25191;SDS011;13143;50.924;5.320;2023-01-08T14:24:17;6.72;;;1.45;;
25191;SDS011;13143;50.924;5.320;2023-01-08T14:26:49;5.75;;;1.20;;
25191;SDS011;13143;50.924;5.320;2023-01-08T14:29:20;3.33;;;1.08;;
25191;SDS011;13143;50.924;5.320;2023-01-08T14:31:50;4.00;;;1.00;;
25191;SDS011;13143;50.924;5.320;2023-01-08T14:34:20;4.32;;;1.05;;
25191;SDS011;13143;50.924;5.320;2023-01-08T14:36:50;3.58;;;1.13;;
25191;SDS011;13143;50.924;5.320;2023-01-08T14:39:23;5.85;;;1.30;;
25191;SDS011;13143;50.924;5.320;2023-01-08T14:41:56;7.35;;;1.15;;
25191;SDS011;13143;50.924;5.320;2023-01-08T14:44:53;8.05;;;1.98;;
25191;SDS011;13143;50.924;5.320;2023-01-08T14:47:20;5.47;;;1.00;;
25191;SDS011;13143;50.924;5.320;2023-01-08T14:49:52;7.43;;;1.20;;
25191;SDS011;13143;50.924;5.320;2023-01-08T14:52:18;5.47;;;1.27;;
25191;SDS011;13143;50.924;5.320;2023-01-08T14:54:46;7.35;;;1.17;;
25191;SDS011;13143;50.924;5.320;2023-01-08T14:57:17;8.82;;;1.40;;
25191;SDS011;13143;50.924;5.320;2023-01-08T14:59:51;6.82;;;1.58;;
25191;SDS011;13143;50.924;5.320;2023-01-08T15:02:27;5.07;;;1.35;;
25191;SDS011;13143;50.924;5.320;2023-01-08T15:05:02;6.57;;;1.60;;
25191;SDS011;13143;50.924;5.320;2023-01-08T15:07:40;7.50;;;1.90;;
25191;SDS011;13143;50.924;5.320;2023-01-08T15:10:22;7.40;;;1.30;;
25191;SDS011;13143;50.924;5.320;2023-01-08T15:13:01;6.15;;;1.20;;
25191;SDS011;13143;50.924;5.320;2023-01-08T15:15:30;6.32;;;1.08;;
25191;SDS011;13143;50.924;5.320;2023-01-08T15:17:58;2.85;;;1.08;;
25191;SDS011;13143;50.924;5.320;2023-01-08T15:20:27;5.25;;;1.38;;
25191;SDS011;13143;50.924;5.320;2023-01-08T15:22:57;3.83;;;1.30;;
25191;SDS011;13143;50.924;5.320;2023-01-08T15:25:27;6.90;;;1.20;;
25191;SDS011;13143;50.924;5.320;2023-01-08T15:27:58;4.75;;;1.08;;
25191;SDS011;13143;50.924;5.320;2023-01-08T15:30:31;5.18;;;1.20;;
25191;SDS011;13143;50.924;5.320;2023-01-08T15:33:21;11.43;;;1.95;;
25191;SDS011;13143;50.924;5.320;2023-01-08T15:35:48;7.55;;;1.17;;
25191;SDS011;13143;50.924;5.320;2023-01-08T15:38:14;2.35;;;1.00;;
25191;SDS011;13143;50.924;5.320;2023-01-08T15:40:41;3.30;;;1.23;;
25191;SDS011;13143;50.924;5.320;2023-01-08T15:43:09;8.00;;;1.75;;
25191;SDS011;13143;50.924;5.320;2023-01-08T15:45:41;7.18;;;1.48;;
25191;SDS011;13143;50.924;5.320;2023-01-08T15:48:08;7.13;;;1.23;;
25191;SDS011;13143;50.924;5.320;2023-01-08T15:50:35;8.43;;;1.58;;
25191;SDS011;13143;50.924;5.320;2023-01-08T15:53:15;7.03;;;1.20;;
25191;SDS011;13143;50.924;5.320;2023-01-08T15:55:42;8.25;;;1.40;;
25191;SDS011;13143;50.924;5.320;2023-01-08T15:58:10;8.90;;;2.20;;
25191;SDS011;13143;50.924;5.320;2023-01-08T16:00:37;8.15;;;1.70;;
25191;SDS011;13143;50.924;5.320;2023-01-08T16:03:04;8.18;;;1.85;;
25191;SDS011;13143;50.924;5.320;2023-01-08T16:05:31;6.78;;;1.60;;
25191;SDS011;13143;50.924;5.320;2023-01-08T16:07:57;10.63;;;1.88;;
25191;SDS011;13143;50.924;5.320;2023-01-08T16:10:23;5.88;;;1.83;;
25191;SDS011;13143;50.924;5.320;2023-01-08T16:12:49;5.68;;;1.63;;
25191;SDS011;13143;50.924;5.320;2023-01-08T16:15:15;13.77;;;1.98;;